createdAt,value
2019-04-28T00:00:45.422Z,25.87
2019-04-28T00:03:15.020Z,18.47
2019-04-28T00:05:44.410Z,27.90
2019-04-28T00:08:13.910Z,26.67
2019-04-28T00:10:43.434Z,19.37
2019-04-28T00:13:13.000Z,23.80
2019-04-28T00:15:42.393Z,20.53
2019-04-28T00:18:12.070Z,15.80
2019-04-28T00:20:45.506Z,18.87
2019-04-28T00:23:25.281Z,18.40
2019-04-28T00:26:14.314Z,8.97
2019-04-28T00:28:43.695Z,16.00
2019-04-28T00:31:13.081Z,16.47
2019-04-28T00:33:43.540Z,19.77
2019-04-28T00:36:13.699Z,20.13
2019-04-28T00:38:43.140Z,22.13
2019-04-28T00:41:12.520Z,19.03
2019-04-28T00:43:41.901Z,21.90
2019-04-28T00:46:12.519Z,20.73
2019-04-28T00:48:41.985Z,20.43
2019-04-28T00:51:11.638Z,18.73
2019-04-28T00:53:41.247Z,17.37
2019-04-28T00:56:12.074Z,21.27
2019-04-28T00:58:41.798Z,17.43
2019-04-28T01:01:24.854Z,20.30
2019-04-28T01:03:54.297Z,13.67
2019-04-28T01:06:23.697Z,17.93
2019-04-28T01:08:53.198Z,21.50
2019-04-28T01:11:22.713Z,20.87
2019-04-28T01:13:52.223Z,18.87
2019-04-28T01:16:30.201Z,16.57
2019-04-28T01:19:01.252Z,22.33
2019-04-28T01:21:32.445Z,13.00
2019-04-28T01:24:01.852Z,15.27
2019-04-28T01:26:31.394Z,11.57
2019-04-28T01:29:00.806Z,16.43
2019-04-28T01:31:39.648Z,12.90
2019-04-28T01:34:20.542Z,19.13
2019-04-28T01:36:51.677Z,18.80
2019-04-28T01:39:21.521Z,18.37
2019-04-28T01:41:50.984Z,18.77
2019-04-28T01:44:20.466Z,17.10
2019-04-28T01:46:49.909Z,20.43
2019-04-28T01:49:19.698Z,18.30
2019-04-28T01:52:00.853Z,14.03
2019-04-28T01:54:30.667Z,17.73
2019-04-28T01:57:01.435Z,16.23
2019-04-28T01:59:31.182Z,13.97
2019-04-28T02:02:00.723Z,19.17
2019-04-28T02:04:32.548Z,15.87
2019-04-28T02:07:01.421Z,23.43
2019-04-28T02:09:30.836Z,16.80
2019-04-28T02:12:00.827Z,18.03
2019-04-28T02:14:30.917Z,12.87
2019-04-28T02:17:00.693Z,16.30
2019-04-28T02:19:30.601Z,17.60
2019-04-28T02:22:21.138Z,14.03
2019-04-28T02:24:50.653Z,14.90
2019-04-28T02:27:20.475Z,25.37
2019-04-28T02:29:50.094Z,17.67
2019-04-28T02:32:23.853Z,22.93
2019-04-28T02:34:50.981Z,20.97
2019-04-28T02:37:20.763Z,11.60
2019-04-28T02:39:50.648Z,16.20
2019-04-28T02:42:21.007Z,22.13
2019-04-28T02:44:52.285Z,18.80
2019-04-28T02:47:22.146Z,16.37
2019-04-28T02:49:53.182Z,18.57
2019-04-28T02:52:30.991Z,16.63
2019-04-28T02:55:03.256Z,15.67
2019-04-28T02:57:32.891Z,17.77
2019-04-28T03:00:02.379Z,16.27
2019-04-28T03:02:32.177Z,16.07
2019-04-28T03:05:01.636Z,10.40
2019-04-28T03:07:31.449Z,13.63
2019-04-28T03:10:03.786Z,15.63
2019-04-28T03:12:32.409Z,12.40
2019-04-28T03:15:01.891Z,16.67
2019-04-28T03:17:31.512Z,14.83
2019-04-28T03:20:01.466Z,18.13
2019-04-28T03:22:33.614Z,16.47
2019-04-28T03:25:03.840Z,13.70
2019-04-28T03:27:34.991Z,13.37
2019-04-28T03:30:13.270Z,17.17
2019-04-28T03:32:53.550Z,14.60
2019-04-28T03:35:22.476Z,17.10
2019-04-28T03:37:51.277Z,17.10
2019-04-28T03:40:21.226Z,10.53
2019-04-28T03:42:51.425Z,11.17
2019-04-28T03:45:22.564Z,15.87
2019-04-28T03:47:51.945Z,17.97
2019-04-28T03:50:21.466Z,14.17
2019-04-28T03:52:51.271Z,14.70
2019-04-28T03:55:21.360Z,17.17
2019-04-28T03:57:51.102Z,14.67
2019-04-28T04:00:22.034Z,15.43
2019-04-28T04:02:51.821Z,21.80
2019-04-28T04:05:21.205Z,16.80
2019-04-28T04:07:50.839Z,16.83
2019-04-28T04:10:32.682Z,22.23
2019-04-28T04:13:15.658Z,14.20
2019-04-28T04:16:02.862Z,14.10
2019-04-28T04:18:33.919Z,17.20
2019-04-28T04:21:03.358Z,15.10
2019-04-28T04:23:32.851Z,13.50
2019-04-28T04:26:02.359Z,12.43
2019-04-28T04:28:31.834Z,10.83
2019-04-28T04:31:03.160Z,14.13
2019-04-28T04:33:32.509Z,15.50
2019-04-28T04:36:02.029Z,20.40
2019-04-28T04:38:31.661Z,22.20
2019-04-28T04:41:01.733Z,14.23
2019-04-28T04:43:31.780Z,12.67
2019-04-28T04:46:15.023Z,18.60
2019-04-28T04:48:46.155Z,14.40
2019-04-28T04:51:15.745Z,14.37
2019-04-28T04:53:45.224Z,15.07
2019-04-28T04:56:14.640Z,15.77
2019-04-28T04:58:44.007Z,14.90
2019-04-28T05:01:20.268Z,14.60
2019-04-28T05:03:59.583Z,19.03
2019-04-28T05:06:41.186Z,15.07
2019-04-28T05:09:11.833Z,21.23
2019-04-28T05:11:41.345Z,12.63
2019-04-28T05:14:12.023Z,17.63
2019-04-28T05:16:41.753Z,20.23
2019-04-28T05:19:11.158Z,14.93
2019-04-28T05:21:40.644Z,17.60
2019-04-28T05:24:27.888Z,14.53
2019-04-28T05:26:57.315Z,15.07
2019-04-28T05:29:28.156Z,14.50
2019-04-28T05:31:59.745Z,15.33
2019-04-28T05:34:29.684Z,12.80
2019-04-28T05:37:00.683Z,16.50
2019-04-28T05:39:30.188Z,7.30
2019-04-28T05:42:00.849Z,14.07
2019-04-28T05:44:32.071Z,13.67
2019-04-28T05:47:01.764Z,17.90
2019-04-28T05:49:35.482Z,22.50
2019-04-28T05:52:11.880Z,13.50
2019-04-28T05:54:44.427Z,15.63
2019-04-28T05:57:21.082Z,18.77
2019-04-28T05:59:52.078Z,16.63
2019-04-28T06:02:30.548Z,13.97
2019-04-28T06:05:00.045Z,10.43
2019-04-28T06:07:31.144Z,17.20
2019-04-28T06:10:04.584Z,13.27
2019-04-28T06:12:33.994Z,9.77
2019-04-28T06:15:04.711Z,9.93
2019-04-28T06:17:34.102Z,13.37
2019-04-28T06:20:04.876Z,11.87
2019-04-28T06:22:34.628Z,15.13
2019-04-28T06:25:05.386Z,12.90
2019-04-28T06:27:34.859Z,9.50
2019-04-28T06:30:06.129Z,17.17
2019-04-28T06:32:36.331Z,17.80
2019-04-28T06:35:08.299Z,12.37
2019-04-28T06:37:37.694Z,11.27
2019-04-28T06:40:08.329Z,10.23
2019-04-28T06:42:37.795Z,14.30
2019-04-28T06:45:08.065Z,13.33
2019-04-28T06:47:37.495Z,15.43
2019-04-28T06:50:07.215Z,11.70
2019-04-28T06:52:36.696Z,12.00
2019-04-28T06:55:07.685Z,12.70
2019-04-28T06:57:37.078Z,12.73
2019-04-28T07:00:08.322Z,19.33
2019-04-28T07:02:37.750Z,13.73
2019-04-28T07:05:07.915Z,12.17
2019-04-28T07:07:37.333Z,13.53
2019-04-28T07:10:08.215Z,14.50
2019-04-28T07:12:37.574Z,14.73
2019-04-28T07:15:07.380Z,10.47
2019-04-28T07:17:36.823Z,10.53
2019-04-28T07:20:11.852Z,15.57
2019-04-28T07:22:41.344Z,15.17
2019-04-28T07:25:10.862Z,14.67
2019-04-28T07:27:40.236Z,12.97
2019-04-28T07:30:10.290Z,14.73
2019-04-28T07:32:39.745Z,16.07
2019-04-28T07:35:09.235Z,9.27
2019-04-28T07:37:38.619Z,14.90
2019-04-28T07:40:08.147Z,13.60
2019-04-28T07:42:37.540Z,12.13
2019-04-28T07:45:09.010Z,17.60
2019-04-28T07:47:38.465Z,11.17
2019-04-28T07:50:08.380Z,11.83
2019-04-28T07:52:54.462Z,13.63
2019-04-28T07:55:23.899Z,24.87
2019-04-28T07:57:53.347Z,11.27
2019-04-28T08:00:30.028Z,15.10
2019-04-28T08:02:59.542Z,16.37
2019-04-28T08:05:29.479Z,15.60
2019-04-28T08:07:58.959Z,12.07
2019-04-28T08:10:28.333Z,8.90
2019-04-28T08:12:57.687Z,9.03
2019-04-28T08:15:27.134Z,13.83
2019-04-28T08:17:56.512Z,15.37
2019-04-28T08:20:25.900Z,13.27
2019-04-28T08:22:56.271Z,11.97
2019-04-28T08:25:25.673Z,16.93
2019-04-28T08:27:55.051Z,16.87
2019-04-28T08:30:24.420Z,20.57
2019-04-28T08:32:57.884Z,17.43
2019-04-28T08:35:27.267Z,19.67
2019-04-28T08:37:56.653Z,16.17
2019-04-28T08:40:26.188Z,13.80
2019-04-28T08:42:55.543Z,10.47
2019-04-28T08:45:24.997Z,15.37
2019-04-28T08:47:54.377Z,14.50
2019-04-28T08:50:23.741Z,17.87
2019-04-28T08:52:53.173Z,8.67
2019-04-28T08:55:22.553Z,15.57
2019-04-28T08:57:51.954Z,15.50
2019-04-28T09:00:21.409Z,13.07
2019-04-28T09:02:50.766Z,14.90
2019-04-28T09:05:20.246Z,16.33
2019-04-28T09:07:49.622Z,14.20
2019-04-28T09:10:19.023Z,11.23
2019-04-28T09:12:48.434Z,12.87
2019-04-28T09:15:17.860Z,13.00
2019-04-28T09:17:47.249Z,13.07
2019-04-28T09:20:16.849Z,13.67
2019-04-28T09:22:46.215Z,12.23
2019-04-28T09:25:15.680Z,13.50
2019-04-28T09:27:45.148Z,11.93
2019-04-28T09:30:15.331Z,9.80
2019-04-28T09:32:44.800Z,7.43
2019-04-28T09:35:15.091Z,9.67
2019-04-28T09:37:44.784Z,7.90
2019-04-28T09:40:16.107Z,8.87
2019-04-28T09:42:47.509Z,14.80
2019-04-28T09:45:37.056Z,11.13
2019-04-28T09:48:06.823Z,6.57
2019-04-28T09:50:36.409Z,17.67
2019-04-28T09:53:06.099Z,9.90
2019-04-28T09:55:35.787Z,7.17
2019-04-28T09:58:05.154Z,8.87
2019-04-28T10:00:34.973Z,8.93
2019-04-28T10:03:04.372Z,8.50
2019-04-28T10:05:34.719Z,8.37
2019-04-28T10:08:04.292Z,11.03
2019-04-28T10:10:33.753Z,12.30
2019-04-28T10:13:03.238Z,6.93
2019-04-28T10:15:32.640Z,5.83
2019-04-28T10:18:02.086Z,5.93
2019-04-28T10:20:31.583Z,9.43
2019-04-28T10:23:01.043Z,5.83
2019-04-28T10:25:30.437Z,10.20
2019-04-28T10:27:59.826Z,7.50
2019-04-28T10:30:29.270Z,9.23
2019-04-28T10:32:58.722Z,9.60
2019-04-28T10:35:28.170Z,5.43
2019-04-28T10:37:57.574Z,5.30
2019-04-28T10:40:40.671Z,8.30
2019-04-28T10:43:10.235Z,5.37
2019-04-28T10:45:41.312Z,3.63
2019-04-28T10:48:10.691Z,2.63
2019-04-28T10:50:40.144Z,4.27
2019-04-28T10:53:09.833Z,6.20
2019-04-28T10:55:39.304Z,4.53
2019-04-28T10:58:08.829Z,5.40
2019-04-28T11:00:39.844Z,6.80
2019-04-28T11:03:09.306Z,6.73
2019-04-28T11:05:42.850Z,5.10
2019-04-28T11:08:32.380Z,6.40
2019-04-28T11:11:03.499Z,6.03
2019-04-28T11:13:32.925Z,4.90
2019-04-28T11:16:02.385Z,5.57
2019-04-28T11:18:31.786Z,4.63
2019-04-28T11:21:01.256Z,8.47
2019-04-28T11:23:30.693Z,6.10
2019-04-28T11:26:00.083Z,5.53
2019-04-28T11:28:29.487Z,3.70
2019-04-28T11:30:58.888Z,4.53
2019-04-28T11:33:46.079Z,6.33
2019-04-28T11:36:17.259Z,4.13
2019-04-28T11:38:46.656Z,3.47
2019-04-28T11:41:16.050Z,6.53
2019-04-28T11:43:45.530Z,5.20
2019-04-28T11:46:16.610Z,4.33
2019-04-28T11:48:46.065Z,3.30
2019-04-28T11:51:15.482Z,6.33
2019-04-28T11:53:44.917Z,5.03
2019-04-28T11:56:14.335Z,6.30
2019-04-28T11:58:46.274Z,4.60
2019-04-28T12:01:16.464Z,4.40
2019-04-28T12:03:46.124Z,4.67
2019-04-28T12:06:15.533Z,5.80
2019-04-28T12:08:45.185Z,4.37
2019-04-28T12:11:16.228Z,5.13
2019-04-28T12:13:56.185Z,5.93
2019-04-28T12:16:38.775Z,6.27
2019-04-28T12:19:12.490Z,4.73
2019-04-28T12:21:41.975Z,5.70
2019-04-28T12:24:11.379Z,4.67
2019-04-28T12:26:40.898Z,3.37
2019-04-28T12:29:10.291Z,5.43
2019-04-28T12:31:39.698Z,6.53
2019-04-28T12:34:09.092Z,5.63
2019-04-28T12:36:38.477Z,6.40
2019-04-28T12:39:09.478Z,8.13
2019-04-28T12:41:38.861Z,5.60
2019-04-28T12:44:08.233Z,8.73
2019-04-28T12:46:37.606Z,7.83
2019-04-28T12:49:08.737Z,5.50
2019-04-28T12:51:38.124Z,6.33
2019-04-28T12:54:09.254Z,6.57
2019-04-28T12:56:38.639Z,3.87
2019-04-28T12:59:09.738Z,5.57
2019-04-28T13:01:49.444Z,4.60
2019-04-28T13:04:20.464Z,3.97
2019-04-28T13:07:03.501Z,2.33
2019-04-28T13:09:33.167Z,5.43
2019-04-28T13:12:02.639Z,2.33
2019-04-28T13:14:32.019Z,3.80
2019-04-28T13:17:01.551Z,5.57
2019-04-28T13:19:30.929Z,3.27
2019-04-28T13:22:00.316Z,4.57
2019-04-28T13:24:29.780Z,6.13
2019-04-28T13:26:59.175Z,5.03
2019-04-28T13:29:28.546Z,6.20
2019-04-28T13:31:57.941Z,3.67
2019-04-28T13:34:28.961Z,4.80
2019-04-28T13:36:58.450Z,7.50
2019-04-28T13:39:35.153Z,4.97
2019-04-28T13:42:05.452Z,4.90
2019-04-28T13:44:51.501Z,8.90
2019-04-28T13:47:21.838Z,7.93
2019-04-28T13:50:05.333Z,5.03
2019-04-28T13:52:34.821Z,8.10
2019-04-28T13:55:23.332Z,3.50
2019-04-28T13:57:53.542Z,3.20
2019-04-28T14:00:40.887Z,4.20
2019-04-28T14:03:20.837Z,5.03
2019-04-28T14:06:06.650Z,3.97
2019-04-28T14:08:36.106Z,4.30
2019-04-28T14:11:05.862Z,7.20
2019-04-28T14:13:35.430Z,3.83
2019-04-28T14:16:05.165Z,9.47
2019-04-28T14:18:34.666Z,6.93
2019-04-28T14:21:04.141Z,7.00
2019-04-28T14:23:33.605Z,5.90
2019-04-28T14:26:03.052Z,4.57
2019-04-28T14:28:32.516Z,3.73
2019-04-28T14:31:01.962Z,5.07
2019-04-28T14:33:31.380Z,3.77
2019-04-28T14:36:00.913Z,5.37
2019-04-28T14:38:30.459Z,3.53
2019-04-28T14:40:59.902Z,6.83
2019-04-28T14:43:29.421Z,6.47
2019-04-28T14:45:58.903Z,3.23
2019-04-28T14:48:28.341Z,6.70
2019-04-28T14:50:57.743Z,2.63
2019-04-28T14:53:27.140Z,4.10
2019-04-28T14:55:56.530Z,3.80
2019-04-28T14:58:26.128Z,6.90
2019-04-28T15:01:09.353Z,5.37
2019-04-28T15:03:46.164Z,8.30
2019-04-28T15:06:25.780Z,8.73
2019-04-28T15:08:56.827Z,4.47
2019-04-28T15:11:33.929Z,5.67
2019-04-28T15:14:03.451Z,7.27
2019-04-28T15:16:32.777Z,3.17
2019-04-28T15:19:02.216Z,4.40
2019-04-28T15:21:31.724Z,6.50
2019-04-28T15:24:01.167Z,5.53
2019-04-28T15:26:30.647Z,5.17
2019-04-28T15:29:00.064Z,4.10
2019-04-28T15:31:29.541Z,5.27
2019-04-28T15:33:58.980Z,5.43
2019-04-28T15:36:28.445Z,5.70
2019-04-28T15:38:57.971Z,5.33
2019-04-28T15:41:27.457Z,5.13
2019-04-28T15:43:56.993Z,2.57
2019-04-28T15:46:26.529Z,5.03
2019-04-28T15:48:56.062Z,5.63
2019-04-28T15:51:25.541Z,3.50
2019-04-28T15:53:54.960Z,7.70
2019-04-28T15:56:29.207Z,7.83
2019-04-28T15:58:58.640Z,4.63
2019-04-28T16:01:28.141Z,4.50
2019-04-28T16:03:57.575Z,5.20
2019-04-28T16:06:27.054Z,5.13
2019-04-28T16:08:56.558Z,4.63
2019-04-28T16:11:28.850Z,4.70
2019-04-28T16:13:57.116Z,6.03
2019-04-28T16:16:26.619Z,5.00
2019-04-28T16:18:56.096Z,5.07
2019-04-28T16:21:25.518Z,2.37
2019-04-28T16:23:54.967Z,4.33
2019-04-28T16:26:24.381Z,4.30
2019-04-28T16:28:53.818Z,2.80
2019-04-28T16:31:23.367Z,3.97
2019-04-28T16:33:53.858Z,2.90
2019-04-28T16:36:23.319Z,4.40
2019-04-28T16:38:52.947Z,3.63
2019-04-28T16:41:22.969Z,2.67
2019-04-28T16:43:52.950Z,3.53
2019-04-28T16:46:22.341Z,3.00
2019-04-28T16:48:51.782Z,4.60
2019-04-28T16:51:21.269Z,6.10
2019-04-28T16:53:51.500Z,4.10
2019-04-28T16:56:39.113Z,2.30
2019-04-28T16:59:16.255Z,3.33
2019-04-28T17:01:47.393Z,6.30
2019-04-28T17:04:16.974Z,3.40
2019-04-28T17:06:46.349Z,6.97
2019-04-28T17:09:16.459Z,5.60
2019-04-28T17:11:45.909Z,4.17
2019-04-28T17:14:15.574Z,3.87
2019-04-28T17:16:45.046Z,4.40
2019-04-28T17:19:14.514Z,4.40
2019-04-28T17:21:43.994Z,4.27
2019-04-28T17:24:13.451Z,2.53
2019-04-28T17:26:42.961Z,4.70
2019-04-28T17:29:12.513Z,5.10
2019-04-28T17:31:42.036Z,2.40
2019-04-28T17:34:11.586Z,2.03
2019-04-28T17:36:41.093Z,2.50
2019-04-28T17:39:12.769Z,3.20
2019-04-28T17:41:42.328Z,3.33
2019-04-28T17:44:12.277Z,5.20
2019-04-28T17:46:42.014Z,2.73
2019-04-28T17:49:11.557Z,4.87
2019-04-28T17:51:41.202Z,2.47
2019-04-28T17:54:10.778Z,3.80
2019-04-28T17:56:41.278Z,4.63
2019-04-28T17:59:10.659Z,2.20
2019-04-28T18:01:44.425Z,3.70
2019-04-28T18:04:33.485Z,3.97
2019-04-28T18:07:04.565Z,2.00
2019-04-28T18:09:33.957Z,1.67
2019-04-28T18:12:03.504Z,2.47
2019-04-28T18:14:33.351Z,3.37
2019-04-28T18:17:13.388Z,5.23
2019-04-28T18:19:42.794Z,3.93
2019-04-28T18:22:12.171Z,4.53
2019-04-28T18:24:41.552Z,3.90
2019-04-28T18:27:10.989Z,3.80
2019-04-28T18:29:40.379Z,3.83
2019-04-28T18:32:27.630Z,3.33
2019-04-28T18:35:04.707Z,1.90
2019-04-28T18:37:38.617Z,1.80
2019-04-28T18:40:22.516Z,3.47
2019-04-28T18:43:10.015Z,5.73
2019-04-28T18:45:39.561Z,3.47
2019-04-28T18:48:08.939Z,4.77
2019-04-28T18:50:38.496Z,4.37
2019-04-28T18:53:07.872Z,3.63
2019-04-28T18:55:37.291Z,5.73
2019-04-28T18:58:06.673Z,3.10
2019-04-28T19:00:37.938Z,5.20
2019-04-28T19:03:07.310Z,3.57
2019-04-28T19:05:38.496Z,3.47
2019-04-28T19:08:09.542Z,4.30
2019-04-28T19:10:40.625Z,2.90
2019-04-28T19:13:24.051Z,6.13
2019-04-28T19:16:00.780Z,3.93
2019-04-28T19:18:34.966Z,3.60
2019-04-28T19:21:05.119Z,2.70
2019-04-28T19:23:34.653Z,5.60
2019-04-28T19:26:04.191Z,5.43
2019-04-28T19:28:33.580Z,4.63
2019-04-28T19:31:03.081Z,5.50
2019-04-28T19:33:32.573Z,5.43
2019-04-28T19:36:05.250Z,4.87
2019-04-28T19:38:34.883Z,6.37
2019-04-28T19:41:04.468Z,4.53
2019-04-28T19:43:33.961Z,6.50
2019-04-28T19:46:05.045Z,3.00
2019-04-28T19:48:34.594Z,6.23
2019-04-28T19:51:03.991Z,6.17
2019-04-28T19:53:33.353Z,5.77
2019-04-28T19:56:06.966Z,4.37
2019-04-28T19:58:40.776Z,5.70
2019-04-28T20:01:26.791Z,4.77
2019-04-28T20:03:56.164Z,2.83
2019-04-28T20:06:25.693Z,3.97
2019-04-28T20:08:55.063Z,6.10
2019-04-28T20:11:24.425Z,3.50
2019-04-28T20:13:53.898Z,5.20
2019-04-28T20:16:23.283Z,8.87
2019-04-28T20:18:52.725Z,3.57
2019-04-28T20:21:22.129Z,6.63
2019-04-28T20:23:51.645Z,7.33
2019-04-28T20:26:21.038Z,6.83
2019-04-28T20:28:50.533Z,6.37
2019-04-28T20:31:19.924Z,6.60
2019-04-28T20:33:49.316Z,7.30
2019-04-28T20:36:23.159Z,8.43
2019-04-28T20:38:57.037Z,5.70
2019-04-28T20:41:28.145Z,4.97
2019-04-28T20:43:58.127Z,5.80
2019-04-28T20:46:27.800Z,4.63
2019-04-28T20:48:57.250Z,5.73
2019-04-28T20:51:26.694Z,5.33
2019-04-28T20:53:56.064Z,5.03
2019-04-28T20:56:25.450Z,3.40
2019-04-28T20:58:54.807Z,6.97
2019-04-28T21:01:24.167Z,9.53
2019-04-28T21:03:53.567Z,4.23
2019-04-28T21:06:22.943Z,7.27
2019-04-28T21:08:52.334Z,5.00
2019-04-28T21:11:21.706Z,5.17
2019-04-28T21:13:51.082Z,8.03
2019-04-28T21:16:20.558Z,5.20
2019-04-28T21:18:49.918Z,7.27
2019-04-28T21:21:19.363Z,5.97
2019-04-28T21:23:48.733Z,5.57
2019-04-28T21:26:18.226Z,4.37
2019-04-28T21:28:47.623Z,4.90
2019-04-28T21:31:17.018Z,7.13
2019-04-28T21:33:47.933Z,9.33
2019-04-28T21:36:21.737Z,4.60
2019-04-28T21:38:51.102Z,8.43
2019-04-28T21:41:20.483Z,6.60
2019-04-28T21:43:54.483Z,5.20
2019-04-28T21:46:31.588Z,8.47
2019-04-28T21:49:02.599Z,9.90
2019-04-28T21:51:31.959Z,5.73
2019-04-28T21:54:01.335Z,4.37
2019-04-28T21:56:30.719Z,8.63
2019-04-28T21:59:00.059Z,9.00
2019-04-28T22:01:29.578Z,10.53
2019-04-28T22:03:58.933Z,6.10
2019-04-28T22:06:28.314Z,5.40
2019-04-28T22:08:57.672Z,5.70
2019-04-28T22:11:27.064Z,7.60
2019-04-28T22:13:56.502Z,6.80
2019-04-28T22:16:25.883Z,6.17
2019-04-28T22:18:55.237Z,5.73
2019-04-28T22:21:24.610Z,6.13
2019-04-28T22:23:55.644Z,7.57
2019-04-28T22:26:44.952Z,7.13
2019-04-28T22:29:14.984Z,5.83
2019-04-28T22:31:45.038Z,7.87
2019-04-28T22:34:15.936Z,8.63
2019-04-28T22:36:46.801Z,9.30
2019-04-28T22:39:16.534Z,8.67
2019-04-28T22:41:46.064Z,6.60
2019-04-28T22:44:15.427Z,6.30
2019-04-28T22:46:44.809Z,7.70
2019-04-28T22:49:14.164Z,6.00
2019-04-28T22:51:43.650Z,6.77
2019-04-28T22:54:30.785Z,6.33
2019-04-28T22:57:04.326Z,5.70
2019-04-28T22:59:35.342Z,6.00
2019-04-28T23:02:06.565Z,5.77
2019-04-28T23:04:37.579Z,7.40
2019-04-28T23:07:07.013Z,8.40
2019-04-28T23:09:36.389Z,7.13
2019-04-28T23:12:06.673Z,7.43
2019-04-28T23:14:36.057Z,6.37
2019-04-28T23:17:07.260Z,9.23
2019-04-28T23:19:38.364Z,12.00
2019-04-28T23:22:12.657Z,9.40
2019-04-28T23:24:42.032Z,10.70
2019-04-28T23:27:11.403Z,10.40
2019-04-28T23:29:40.861Z,9.73
2019-04-28T23:32:10.373Z,8.33
2019-04-28T23:34:39.749Z,10.27
2019-04-28T23:37:09.165Z,7.77
2019-04-28T23:39:38.541Z,8.53
2019-04-28T23:42:15.559Z,6.37
2019-04-28T23:44:44.995Z,7.17
2019-04-28T23:47:14.351Z,6.60
2019-04-28T23:49:43.802Z,8.50
2019-04-28T23:52:23.642Z,8.73
2019-04-28T23:54:54.663Z,9.77
2019-04-28T23:57:24.026Z,9.87
2019-04-28T23:59:53.385Z,7.80
